createdAt,value
2018-01-13T00:01:40.698Z,2.80
2018-01-13T00:04:07.175Z,2.90
2018-01-13T00:06:33.685Z,2.90
2018-01-13T00:09:00.136Z,2.90
2018-01-13T00:11:26.580Z,2.90
2018-01-13T00:13:53.035Z,2.80
2018-01-13T00:16:19.635Z,2.80
2018-01-13T00:18:46.140Z,2.80
2018-01-13T00:21:13.295Z,2.90
2018-01-13T00:23:39.884Z,2.80
2018-01-13T00:26:06.371Z,2.80
2018-01-13T00:28:33.564Z,2.80
2018-01-13T00:31:00.171Z,2.80
2018-01-13T00:33:26.654Z,2.80
2018-01-13T00:35:53.171Z,2.90
2018-01-13T00:38:19.670Z,2.80
2018-01-13T00:40:46.202Z,2.90
2018-01-13T00:43:12.709Z,2.80
2018-01-13T00:45:39.158Z,2.80
2018-01-13T00:48:06.383Z,2.90
2018-01-13T00:50:32.818Z,2.90
2018-01-13T00:52:59.274Z,2.90
2018-01-13T00:55:26.551Z,2.90
2018-01-13T00:57:53.000Z,2.90
2018-01-13T01:00:19.571Z,2.90
2018-01-13T01:02:45.996Z,2.90
2018-01-13T01:05:12.558Z,2.90
2018-01-13T01:07:39.040Z,2.70
2018-01-13T01:10:05.478Z,2.90
2018-01-13T01:12:31.956Z,2.90
2018-01-13T01:14:58.495Z,2.90
2018-01-13T01:17:24.963Z,2.90
2018-01-13T01:19:51.513Z,2.90
2018-01-13T01:22:17.946Z,2.90
2018-01-13T01:24:48.199Z,2.90
2018-01-13T01:27:14.670Z,2.90
2018-01-13T01:29:41.868Z,2.80
2018-01-13T01:32:08.370Z,2.80
2018-01-13T01:34:34.909Z,2.80
2018-01-13T01:37:01.474Z,2.80
2018-01-13T01:39:28.682Z,2.80
2018-01-13T01:41:55.866Z,2.80
2018-01-13T01:44:22.381Z,2.80
2018-01-13T01:46:48.891Z,2.80
2018-01-13T01:49:16.164Z,2.80
2018-01-13T01:51:42.654Z,2.80
2018-01-13T01:54:09.904Z,2.70
2018-01-13T01:56:36.350Z,2.70
2018-01-13T01:59:02.974Z,2.80
2018-01-13T02:01:29.438Z,2.70
2018-01-13T02:03:56.790Z,2.80
2018-01-13T02:06:23.993Z,2.80
2018-01-13T02:08:50.465Z,2.80
2018-01-13T02:11:17.652Z,2.80
2018-01-13T02:13:44.057Z,2.70
2018-01-13T02:16:11.234Z,2.70
2018-01-13T02:18:37.686Z,2.70
2018-01-13T02:21:04.166Z,2.70
2018-01-13T02:23:31.319Z,2.70
2018-01-13T02:25:58.518Z,2.70
2018-01-13T02:28:24.992Z,2.60
2018-01-13T02:30:51.498Z,2.60
2018-01-13T02:33:17.997Z,2.60
2018-01-13T02:35:44.399Z,2.60
2018-01-13T02:38:11.554Z,2.50
2018-01-13T02:40:38.760Z,2.50
2018-01-13T02:43:05.207Z,2.50
2018-01-13T02:45:31.903Z,2.50
2018-01-13T02:47:58.336Z,2.50
2018-01-13T02:50:24.782Z,2.60
2018-01-13T02:52:51.253Z,2.50
2018-01-13T02:55:17.796Z,2.50
2018-01-13T02:57:44.235Z,2.50
2018-01-13T03:00:10.883Z,2.50
2018-01-13T03:02:38.082Z,2.60
2018-01-13T03:05:04.531Z,2.60
2018-01-13T03:07:31.002Z,2.70
2018-01-13T03:09:58.176Z,2.80
2018-01-13T03:12:24.590Z,2.70
2018-01-13T03:14:51.782Z,2.80
2018-01-13T03:17:18.250Z,2.80
2018-01-13T03:19:44.719Z,2.80
2018-01-13T03:22:11.130Z,2.90
2018-01-13T03:24:38.278Z,2.80
2018-01-13T03:27:05.506Z,2.80
2018-01-13T03:29:31.976Z,2.80
2018-01-13T03:31:59.216Z,2.90
2018-01-13T03:34:26.390Z,3.00
2018-01-13T03:36:52.961Z,3.00
2018-01-13T03:39:19.549Z,3.00
2018-01-13T03:41:46.733Z,3.20
2018-01-13T03:44:13.179Z,3.00
2018-01-13T03:46:39.711Z,3.10
2018-01-13T03:49:06.215Z,3.10
2018-01-13T03:51:32.615Z,3.10
2018-01-13T03:53:59.206Z,3.20
2018-01-13T03:56:25.778Z,3.20
2018-01-13T03:58:52.246Z,3.20
2018-01-13T04:01:19.438Z,3.20
2018-01-13T04:03:45.878Z,3.20
2018-01-13T04:06:12.444Z,3.00
2018-01-13T04:08:38.944Z,3.20
2018-01-13T04:11:05.375Z,3.20
2018-01-13T04:13:31.885Z,3.20
2018-01-13T04:15:58.370Z,3.20
2018-01-13T04:18:24.824Z,3.20
2018-01-13T04:20:52.007Z,3.20
2018-01-13T04:23:18.476Z,3.20
2018-01-13T04:25:44.918Z,3.20
2018-01-13T04:28:11.409Z,3.20
2018-01-13T04:30:38.011Z,3.20
2018-01-13T04:33:05.260Z,3.20
2018-01-13T04:35:32.438Z,3.30
2018-01-13T04:37:58.939Z,3.30
2018-01-13T04:40:25.389Z,3.30
2018-01-13T04:42:52.538Z,3.30
2018-01-13T04:45:19.769Z,3.30
2018-01-13T04:47:46.194Z,3.30
2018-01-13T04:50:12.652Z,3.30
2018-01-13T04:52:40.056Z,3.30
2018-01-13T04:55:06.622Z,3.30
2018-01-13T04:57:33.123Z,3.20
2018-01-13T04:59:59.618Z,3.20
2018-01-13T05:02:26.846Z,3.10
2018-01-13T05:04:53.292Z,3.00
2018-01-13T05:07:20.506Z,3.00
2018-01-13T05:09:46.961Z,3.00
2018-01-13T05:12:13.375Z,3.00
2018-01-13T05:14:40.223Z,2.90
2018-01-13T05:17:06.738Z,3.00
2018-01-13T05:19:34.903Z,2.90
2018-01-13T05:22:02.115Z,3.00
2018-01-13T05:24:29.321Z,3.00
2018-01-13T05:26:55.757Z,3.00
2018-01-13T05:29:22.198Z,2.90
2018-01-13T05:31:48.684Z,2.90
2018-01-13T05:34:15.121Z,2.90
2018-01-13T05:36:41.614Z,3.00
2018-01-13T05:39:08.078Z,3.00
2018-01-13T05:41:34.565Z,3.10
2018-01-13T05:44:01.034Z,3.20
2018-01-13T05:46:28.207Z,3.20
2018-01-13T05:48:54.734Z,3.20
2018-01-13T05:51:21.153Z,3.30
2018-01-13T05:53:48.325Z,3.30
2018-01-13T05:56:14.993Z,3.30
2018-01-13T05:58:41.401Z,3.30
2018-01-13T06:01:07.902Z,3.30
2018-01-13T06:03:35.082Z,3.20
2018-01-13T06:06:01.535Z,3.20
2018-01-13T06:08:27.999Z,3.20
2018-01-13T06:10:54.446Z,3.20
2018-01-13T06:13:20.976Z,3.20
2018-01-13T06:15:47.402Z,3.20
2018-01-13T06:18:13.877Z,3.20
2018-01-13T06:20:40.274Z,3.20
2018-01-13T06:23:06.722Z,3.10
2018-01-13T06:25:33.913Z,3.30
2018-01-13T06:28:00.347Z,3.20
2018-01-13T06:30:26.835Z,3.30
2018-01-13T06:32:54.042Z,3.30
2018-01-13T06:35:20.514Z,3.30
2018-01-13T06:37:47.699Z,3.30
2018-01-13T06:40:14.146Z,3.20
2018-01-13T06:42:40.598Z,3.20
2018-01-13T06:45:07.028Z,3.20
2018-01-13T06:47:33.477Z,3.20
2018-01-13T06:49:59.978Z,3.20
2018-01-13T06:52:26.511Z,3.00
2018-01-13T06:54:53.010Z,3.20
2018-01-13T06:57:20.188Z,3.20
2018-01-13T06:59:46.674Z,3.20
2018-01-13T07:02:13.126Z,3.20
2018-01-13T07:04:39.560Z,3.20
2018-01-13T07:07:06.754Z,3.20
2018-01-13T07:09:33.245Z,3.20
2018-01-13T07:11:59.824Z,3.10
2018-01-13T07:14:26.258Z,3.20
2018-01-13T07:16:52.707Z,3.10
2018-01-13T07:19:19.187Z,3.10
2018-01-13T07:21:46.339Z,3.20
2018-01-13T07:24:13.824Z,3.20
2018-01-13T07:26:40.278Z,3.20
2018-01-13T07:29:06.703Z,3.20
2018-01-13T07:31:33.219Z,3.20
2018-01-13T07:33:59.707Z,3.20
2018-01-13T07:36:26.203Z,3.10
2018-01-13T07:38:53.638Z,3.20
2018-01-13T07:41:20.094Z,3.20
2018-01-13T07:43:46.613Z,3.20
2018-01-13T07:46:13.155Z,3.20
2018-01-13T07:48:39.615Z,3.20
2018-01-13T07:51:06.030Z,3.20
2018-01-13T07:53:32.587Z,3.20
2018-01-13T07:55:59.085Z,3.20
2018-01-13T07:58:25.686Z,3.30
2018-01-13T08:00:52.160Z,3.30
2018-01-13T08:03:18.642Z,3.30
2018-01-13T08:05:45.156Z,3.30
2018-01-13T08:08:11.626Z,3.30
2018-01-13T08:10:38.847Z,3.40
2018-01-13T08:13:05.298Z,3.10
2018-01-13T08:15:31.778Z,3.40
2018-01-13T08:17:58.246Z,3.40
2018-01-13T08:20:24.801Z,3.30
2018-01-13T08:22:51.298Z,3.30
2018-01-13T08:25:17.838Z,3.40
2018-01-13T08:27:44.370Z,3.40
2018-01-13T08:30:10.896Z,3.40
2018-01-13T08:32:37.427Z,3.40
2018-01-13T08:35:03.885Z,3.40
2018-01-13T08:37:30.321Z,3.20
2018-01-13T08:39:56.761Z,3.10
2018-01-13T08:42:23.223Z,3.20
2018-01-13T08:44:49.776Z,3.30
2018-01-13T08:47:16.194Z,3.20
2018-01-13T08:49:43.451Z,3.20
2018-01-13T08:52:10.626Z,3.20
2018-01-13T08:54:37.181Z,3.20
2018-01-13T08:57:03.652Z,3.20
2018-01-13T08:59:30.216Z,3.20
2018-01-13T09:01:56.680Z,3.20
2018-01-13T09:04:23.117Z,3.20
2018-01-13T09:06:49.550Z,3.20
2018-01-13T09:09:16.012Z,3.20
2018-01-13T09:11:42.453Z,3.30
2018-01-13T09:14:08.930Z,3.30
2018-01-13T09:16:35.357Z,3.30
2018-01-13T09:19:01.870Z,3.30
2018-01-13T09:21:29.210Z,3.30
2018-01-13T09:23:55.619Z,3.30
2018-01-13T09:26:22.163Z,3.30
2018-01-13T09:28:48.595Z,3.30
2018-01-13T09:31:15.152Z,3.30
2018-01-13T09:33:42.394Z,3.30
2018-01-13T09:36:08.940Z,3.30
2018-01-13T09:38:36.163Z,3.30
2018-01-13T09:41:02.721Z,3.30
2018-01-13T09:43:30.367Z,3.30
2018-01-13T09:45:56.814Z,3.40
2018-01-13T09:48:23.298Z,3.40
2018-01-13T09:50:49.877Z,3.30
2018-01-13T09:53:17.185Z,3.40
2018-01-13T09:55:43.922Z,3.40
2018-01-13T09:58:10.840Z,3.50
2018-01-13T10:00:37.330Z,3.50
2018-01-13T10:03:03.835Z,3.50
2018-01-13T10:05:30.291Z,3.40
2018-01-13T10:07:57.470Z,3.40
2018-01-13T10:10:24.044Z,3.40
2018-01-13T10:12:50.530Z,3.40
2018-01-13T10:15:17.242Z,3.50
2018-01-13T10:17:43.757Z,3.50
2018-01-13T10:20:10.210Z,3.40
2018-01-13T10:22:36.716Z,3.40
2018-01-13T10:25:03.230Z,3.40
2018-01-13T10:27:30.555Z,3.40
2018-01-13T10:29:57.105Z,3.40
2018-01-13T10:32:23.649Z,3.40
2018-01-13T10:34:50.961Z,3.50
2018-01-13T10:37:17.536Z,3.40
2018-01-13T10:39:43.973Z,3.40
2018-01-13T10:42:11.717Z,3.40
2018-01-13T10:44:38.965Z,3.40
2018-01-13T10:47:05.421Z,3.40
2018-01-13T10:49:32.564Z,3.50
2018-01-13T10:51:59.366Z,3.50
2018-01-13T10:54:25.832Z,3.60
2018-01-13T10:56:52.398Z,3.60
2018-01-13T10:59:19.715Z,3.70
2018-01-13T11:01:46.182Z,3.70
2018-01-13T11:04:13.366Z,3.80
2018-01-13T11:06:39.874Z,3.80
2018-01-13T11:09:07.508Z,3.90
2018-01-13T11:11:33.943Z,3.90
2018-01-13T11:14:00.473Z,3.90
2018-01-13T11:16:27.023Z,3.90
2018-01-13T11:18:54.278Z,3.90
2018-01-13T11:21:20.808Z,3.90
2018-01-13T11:23:48.226Z,4.00
2018-01-13T11:26:14.681Z,4.00
2018-01-13T11:28:41.350Z,4.00
2018-01-13T11:31:08.002Z,4.00
2018-01-13T11:33:34.477Z,3.90
2018-01-13T11:36:00.956Z,3.90
2018-01-13T11:38:28.102Z,3.70
2018-01-13T11:40:55.344Z,3.70
2018-01-13T11:43:22.527Z,3.80
2018-01-13T11:45:49.070Z,3.80
2018-01-13T11:48:15.599Z,3.80
2018-01-13T11:50:42.107Z,3.70
2018-01-13T11:53:09.398Z,3.70
2018-01-13T11:55:35.909Z,3.70
2018-01-13T11:58:02.765Z,3.80
2018-01-13T12:00:29.296Z,3.90
2018-01-13T12:02:55.792Z,3.90
2018-01-13T12:05:23.093Z,3.70
2018-01-13T12:07:49.568Z,3.70
2018-01-13T12:10:16.034Z,3.70
2018-01-13T12:12:42.666Z,3.70
2018-01-13T12:15:10.023Z,3.70
2018-01-13T12:17:37.298Z,3.70
2018-01-13T12:20:03.878Z,3.70
2018-01-13T12:22:30.988Z,3.80
2018-01-13T12:24:57.573Z,3.80
2018-01-13T12:27:24.216Z,3.70
2018-01-13T12:29:50.931Z,3.80
2018-01-13T12:32:17.410Z,3.80
2018-01-13T12:34:44.030Z,3.90
2018-01-13T12:37:11.294Z,3.90
2018-01-13T12:39:38.698Z,3.90
2018-01-13T12:42:05.214Z,3.90
2018-01-13T12:44:31.920Z,4.00
2018-01-13T12:46:59.205Z,4.00
2018-01-13T12:49:25.734Z,4.00
2018-01-13T12:51:52.580Z,4.00
2018-01-13T12:54:19.250Z,3.90
2018-01-13T12:56:45.758Z,3.80
2018-01-13T12:59:12.368Z,3.90
2018-01-13T13:01:38.850Z,3.90
2018-01-13T13:04:05.833Z,4.00
2018-01-13T13:06:32.346Z,4.10
2018-01-13T13:08:59.653Z,4.00
2018-01-13T13:11:26.146Z,4.00
2018-01-13T13:13:52.733Z,4.10
2018-01-13T13:16:19.311Z,4.10
2018-01-13T13:18:46.563Z,4.20
2018-01-13T13:21:13.850Z,4.20
2018-01-13T13:23:40.319Z,4.20
2018-01-13T13:26:06.840Z,4.10
2018-01-13T13:28:33.393Z,4.10
2018-01-13T13:31:01.883Z,4.10
2018-01-13T13:33:31.022Z,4.00
2018-01-13T13:35:58.040Z,4.00
2018-01-13T13:38:24.550Z,4.10
2018-01-13T13:40:51.189Z,4.00
2018-01-13T13:43:17.732Z,4.10
2018-01-13T13:45:44.283Z,4.20
2018-01-13T13:48:10.763Z,4.00
2018-01-13T13:50:37.330Z,4.00
2018-01-13T13:53:03.967Z,4.00
2018-01-13T13:55:30.456Z,4.10
2018-01-13T13:57:57.783Z,4.00
2018-01-13T14:00:24.259Z,4.00
2018-01-13T14:02:51.037Z,4.00
2018-01-13T14:05:17.564Z,4.00
2018-01-13T14:07:44.823Z,3.90
2018-01-13T14:10:11.304Z,3.90
2018-01-13T14:12:40.173Z,4.00
2018-01-13T14:15:08.233Z,4.00
2018-01-13T14:20:31.524Z,3.80
2018-01-13T14:22:59.275Z,3.90
2018-01-13T14:28:29.414Z,3.80
2018-01-13T14:30:55.824Z,3.80
2018-01-13T14:33:22.478Z,3.80
2018-01-13T14:35:49.098Z,3.80
2018-01-13T14:38:15.727Z,3.80
2018-01-13T14:43:46.652Z,3.80
2018-01-13T14:46:13.585Z,3.80
2018-01-13T14:48:40.863Z,3.80
2018-01-13T14:51:07.985Z,3.80
2018-01-13T14:53:35.268Z,3.80
2018-01-13T14:56:01.913Z,3.80
2018-01-13T14:58:28.353Z,3.70
2018-01-13T15:00:54.901Z,3.70
2018-01-13T15:03:21.361Z,3.80
2018-01-13T15:05:48.528Z,3.70
2018-01-13T15:08:15.741Z,3.80
2018-01-13T15:10:42.432Z,3.70
2018-01-13T15:13:08.835Z,3.70
2018-01-13T15:15:35.267Z,3.80
2018-01-13T15:18:03.610Z,3.80
2018-01-13T15:20:30.478Z,3.80
2018-01-13T15:22:57.201Z,3.80
2018-01-13T15:25:23.677Z,3.90
2018-01-13T15:27:50.942Z,3.60
2018-01-13T15:30:17.471Z,3.60
2018-01-13T15:32:44.011Z,3.60
2018-01-13T15:35:10.579Z,3.60
2018-01-13T15:37:37.295Z,3.50
2018-01-13T15:40:03.806Z,3.50
2018-01-13T15:42:30.337Z,3.50
2018-01-13T15:44:57.521Z,3.50
2018-01-13T15:47:23.949Z,3.50
2018-01-13T15:49:50.454Z,3.50
2018-01-13T15:52:16.899Z,3.50
2018-01-13T15:54:43.716Z,3.40
2018-01-13T15:57:10.941Z,3.40
2018-01-13T15:59:37.423Z,3.40
2018-01-13T16:02:03.871Z,3.50
2018-01-13T16:04:30.271Z,3.40
2018-01-13T16:09:54.193Z,3.40
2018-01-13T16:12:20.709Z,3.40
2018-01-13T16:14:47.124Z,3.40
2018-01-13T16:17:14.305Z,3.40
2018-01-13T16:19:40.822Z,3.40
2018-01-13T16:22:07.326Z,3.40
2018-01-13T16:24:33.810Z,3.40
2018-01-13T16:27:00.255Z,3.50
2018-01-13T16:29:26.720Z,3.50
2018-01-13T16:31:53.173Z,3.50
2018-01-13T16:34:20.412Z,3.40
2018-01-13T16:36:46.834Z,3.40
2018-01-13T16:39:14.101Z,3.40
2018-01-13T16:41:41.294Z,3.40
2018-01-13T16:44:07.814Z,3.40
2018-01-13T16:46:34.227Z,3.40
2018-01-13T16:49:01.381Z,3.40
2018-01-13T16:51:28.585Z,3.40
2018-01-13T16:53:55.000Z,3.40
2018-01-13T16:56:21.534Z,3.40
2018-01-13T16:58:48.047Z,3.40
2018-01-13T17:01:14.448Z,3.50
2018-01-13T17:03:40.936Z,3.50
2018-01-13T17:06:07.382Z,3.40
2018-01-13T17:08:33.820Z,3.40
2018-01-13T17:11:00.361Z,3.40
2018-01-13T17:13:26.821Z,3.30
2018-01-13T17:15:54.041Z,3.40
2018-01-13T17:18:20.487Z,3.40
2018-01-13T17:20:46.915Z,3.40
2018-01-13T17:23:13.367Z,3.40
2018-01-13T17:25:39.830Z,3.30
2018-01-13T17:28:06.252Z,3.30
2018-01-13T17:30:33.448Z,3.30
2018-01-13T17:32:59.937Z,3.30
2018-01-13T17:35:27.093Z,3.30
2018-01-13T17:37:53.589Z,3.20
2018-01-13T17:40:20.157Z,3.30
2018-01-13T17:42:46.807Z,3.20
2018-01-13T17:45:13.348Z,3.20
2018-01-13T17:47:39.835Z,3.20
2018-01-13T17:50:06.307Z,3.20
2018-01-13T17:52:32.853Z,3.20
2018-01-13T17:54:59.297Z,3.30
2018-01-13T17:57:25.793Z,3.20
2018-01-13T17:59:52.986Z,3.20
2018-01-13T18:02:19.457Z,3.20
2018-01-13T18:04:47.991Z,3.20
2018-01-13T18:07:15.313Z,3.20
2018-01-13T18:09:41.953Z,3.20
2018-01-13T18:13:29.339Z,3.20
2018-01-13T18:15:55.833Z,3.10
2018-01-13T18:18:22.459Z,3.20
2018-01-13T18:21:09.764Z,3.20
2018-01-13T18:32:55.120Z,3.10
2018-01-13T18:35:22.448Z,3.10
2018-01-13T18:37:49.039Z,3.10
2018-01-13T18:40:15.605Z,3.10
2018-01-13T18:42:42.094Z,3.10
2018-01-13T18:45:08.712Z,3.10
2018-01-13T18:47:35.230Z,3.00
2018-01-13T18:50:19.668Z,3.00
2018-01-13T18:52:46.252Z,3.00
2018-01-13T18:55:12.731Z,3.00
2018-01-13T18:57:39.321Z,3.00
2018-01-13T19:00:06.062Z,2.90
2018-01-13T19:02:32.549Z,3.00
2018-01-13T19:04:59.163Z,2.90
2018-01-13T19:07:25.689Z,2.90
2018-01-13T19:09:52.170Z,2.90
2018-01-13T19:12:18.701Z,2.80
2018-01-13T19:14:45.316Z,2.80
2018-01-13T19:17:11.916Z,2.90
2018-01-13T19:19:38.495Z,2.80
2018-01-13T19:22:05.019Z,2.80
2018-01-13T19:24:31.511Z,2.70
2018-01-13T19:26:58.169Z,2.70
2018-01-13T19:29:24.641Z,2.70
2018-01-13T19:31:51.103Z,2.70
2018-01-13T19:34:18.352Z,2.70
2018-01-13T19:36:45.564Z,2.70
2018-01-13T19:39:12.242Z,2.70
2018-01-13T19:41:39.564Z,2.70
2018-01-13T19:44:06.163Z,2.70
2018-01-13T19:46:33.514Z,2.70
2018-01-13T19:49:01.084Z,2.70
2018-01-13T19:51:27.581Z,2.70
2018-01-13T19:53:54.730Z,2.60
2018-01-13T19:56:21.936Z,2.50
2018-01-13T19:58:48.560Z,2.50
2018-01-13T20:01:15.122Z,2.50
2018-01-13T20:03:41.590Z,2.70
2018-01-13T20:06:08.791Z,2.50
2018-01-13T20:08:35.564Z,2.50
2018-01-13T20:11:02.075Z,2.40
2018-01-13T20:13:28.551Z,2.40
2018-01-13T20:15:55.034Z,2.30
2018-01-13T20:18:21.647Z,2.30
2018-01-13T20:20:48.962Z,2.20
2018-01-13T20:23:15.454Z,2.20
2018-01-13T20:25:41.992Z,2.20
2018-01-13T20:28:08.464Z,2.10
2018-01-13T20:30:34.947Z,2.10
2018-01-13T20:33:01.464Z,2.00
2018-01-13T20:35:27.983Z,2.00
2018-01-13T20:37:55.220Z,2.00
2018-01-13T20:40:21.794Z,2.00
2018-01-13T20:42:48.252Z,2.00
2018-01-13T20:45:14.743Z,2.00
2018-01-13T20:47:41.965Z,2.00
2018-01-13T20:50:08.465Z,1.90
2018-01-13T20:52:34.979Z,2.00
2018-01-13T20:55:01.459Z,2.00
2018-01-13T20:57:28.039Z,2.00
2018-01-13T20:59:54.595Z,2.00
2018-01-13T21:02:21.098Z,1.90
2018-01-13T21:04:48.315Z,1.90
2018-01-13T21:07:14.828Z,1.90
2018-01-13T21:09:42.006Z,1.90
2018-01-13T21:12:08.492Z,1.90
2018-01-13T21:14:34.992Z,1.90
2018-01-13T21:17:01.609Z,1.90
2018-01-13T21:19:28.081Z,1.90
2018-01-13T21:21:55.416Z,2.10
2018-01-13T21:24:21.991Z,2.00
2018-01-13T21:26:48.547Z,2.20
2018-01-13T21:29:15.123Z,2.20
2018-01-13T21:31:41.617Z,2.20
2018-01-13T21:34:08.187Z,2.20
2018-01-13T21:36:34.652Z,2.10
2018-01-13T21:39:01.124Z,2.00
2018-01-13T21:41:27.674Z,1.90
2018-01-13T21:43:54.361Z,1.90
2018-01-13T21:46:20.866Z,1.80
2018-01-13T21:48:47.384Z,1.90
2018-01-13T21:51:13.904Z,1.80
2018-01-13T21:53:40.382Z,1.90
2018-01-13T21:56:07.633Z,1.80
2018-01-13T21:58:35.029Z,1.80
2018-01-13T22:01:01.600Z,1.80
2018-01-13T22:03:28.100Z,1.80
2018-01-13T22:05:54.615Z,1.70
2018-01-13T22:08:21.165Z,1.80
2018-01-13T22:10:47.679Z,1.80
2018-01-13T22:13:15.025Z,1.70
2018-01-13T22:15:42.215Z,1.70
2018-01-13T22:18:08.745Z,1.70
2018-01-13T22:20:35.242Z,1.70
2018-01-13T22:23:02.469Z,1.60
2018-01-13T22:25:29.100Z,1.60
2018-01-13T22:27:55.645Z,1.60
2018-01-13T22:30:22.163Z,1.60
2018-01-13T22:32:48.745Z,1.60
2018-01-13T22:35:15.335Z,1.50
2018-01-13T22:37:41.896Z,1.50
2018-01-13T22:40:08.327Z,1.50
2018-01-13T22:42:34.808Z,1.50
2018-01-13T22:45:01.331Z,1.40
2018-01-13T22:47:27.898Z,1.40
2018-01-13T22:49:54.344Z,1.40
2018-01-13T22:52:21.076Z,1.40
2018-01-13T22:54:47.713Z,1.30
2018-01-13T22:57:14.231Z,1.30
2018-01-13T22:59:40.780Z,1.30
2018-01-13T23:02:07.268Z,1.30
2018-01-13T23:04:34.513Z,1.30
2018-01-13T23:07:01.791Z,1.20
2018-01-13T23:09:28.255Z,1.20
2018-01-13T23:11:54.878Z,1.20
2018-01-13T23:14:21.448Z,1.10
2018-01-13T23:16:47.902Z,1.10
2018-01-13T23:19:15.157Z,1.10
2018-01-13T23:21:42.441Z,1.10
2018-01-13T23:24:08.946Z,1.00
2018-01-13T23:26:36.742Z,1.00
2018-01-13T23:29:03.204Z,1.00
2018-01-13T23:31:29.807Z,1.00
2018-01-13T23:33:56.290Z,1.10
2018-01-13T23:36:22.810Z,1.00
2018-01-13T23:38:49.243Z,1.10
2018-01-13T23:41:15.758Z,1.10
2018-01-13T23:43:42.254Z,1.10
2018-01-13T23:46:09.638Z,1.10
2018-01-13T23:48:36.212Z,1.00
2018-01-13T23:51:02.947Z,1.10
2018-01-13T23:53:29.527Z,1.10
2018-01-13T23:55:56.005Z,1.10
2018-01-13T23:58:22.508Z,1.10
